Time;durP1;ratioP1;P1;durP2;ratioP2;P2;SDS_P1;SDS_P2;PMS_P1;PMS_P2;Temp;Humidity;BMP_temperature;BMP_pressure;BME280_temperature;BME280_humidity;BME280_pressure;Samples;Min_cycle;Max_cycle;Signal;HPM_P1;HPM_P2
2022/04/01 00:01:49;;;;;;;27.67;15.07;;;;;;;9.51;69.60;93111.41;5030148;28;20498;-68
2022/04/01 00:04:15;;;;;;;34.95;15.85;;;;;;;9.96;68.48;93149.94;5030622;28;20026;-68
2022/04/01 00:06:40;;;;;;;30.55;14.88;;;;;;;9.65;67.42;93066.59;5012844;28;20025;-67
2022/04/01 00:09:05;;;;;;;35.28;16.88;;;;;;;10.34;67.82;93112.00;5012723;28;20044;-67
2022/04/01 00:11:31;;;;;;;38.47;17.48;;;;;;;10.24;67.28;93113.34;5029805;28;20033;-67
2022/04/01 00:13:57;;;;;;;30.13;15.00;;;;;;;9.94;67.19;93137.00;5030268;28;20117;-67
2022/04/01 00:16:22;;;;;;;23.25;13.15;;;;;;;9.92;67.46;93136.56;5012577;28;20152;-68
2022/04/01 00:18:48;;;;;;;22.63;13.40;;;;;;;9.54;67.66;93116.81;5030639;28;20025;-67
2022/04/01 00:21:13;;;;;;;23.08;13.57;;;;;;;10.07;66.99;93127.00;5030088;28;20041;-67
2022/04/01 00:23:38;;;;;;;21.30;12.98;;;;;;;9.73;66.62;93132.00;5030174;28;20022;-67
2022/04/01 00:26:04;;;;;;;28.52;14.50;;;;;;;10.36;67.40;93109.75;5030972;28;20463;-67
2022/04/01 00:28:29;;;;;;;28.27;13.60;;;;;;;10.80;67.62;93130.66;5015546;28;20577;-67
2022/04/01 00:30:55;;;;;;;30.10;13.90;;;;;;;10.50;66.60;93075.47;5015504;28;20112;-68
2022/04/01 00:33:20;;;;;;;28.00;14.25;;;;;;;10.95;66.73;93113.81;5034267;28;20033;-67
2022/04/01 00:35:46;;;;;;;27.10;13.82;;;;;;;10.13;65.27;93131.72;5015893;28;20029;-68
2022/04/01 00:38:12;;;;;;;23.92;13.02;;;;;;;10.07;66.00;93122.47;5015869;28;20119;-67
2022/04/01 00:40:39;;;;;;;36.75;15.55;;;;;;;10.23;64.59;93117.06;5033138;28;20437;-68
2022/04/01 00:43:05;;;;;;;34.95;15.40;;;;;;;9.93;66.44;93129.38;5033545;28;20025;-68
2022/04/01 00:45:30;;;;;;;50.53;17.67;;;;;;;10.49;66.82;93129.72;5033545;28;20034;-67
2022/04/01 00:48:01;;;;;;;44.00;16.33;;;;;;;10.05;66.88;93105.34;5033451;28;20026;-67
2022/04/01 00:50:28;;;;;;;46.53;17.80;;;;;;;10.61;66.55;93126.16;5015279;28;20021;-66
2022/04/01 00:52:53;;;;;;;37.67;16.60;;;;;;;10.49;65.93;93129.72;5033462;28;20393;-68
2022/04/01 00:55:19;;;;;;;43.15;16.83;;;;;;;10.37;66.56;93092.69;5033285;28;20025;-67
2022/04/01 00:57:46;;;;;;;31.30;15.07;;;;;;;10.44;65.08;93102.69;5033300;28;20025;-67
2022/04/01 01:00:12;;;;;;;27.60;14.52;;;;;;;10.50;64.52;93117.25;5015257;28;20026;-68
2022/04/01 01:02:39;;;;;;;30.83;14.45;;;;;;;10.55;66.30;93115.06;5032939;28;20035;-67
2022/04/01 01:05:05;;;;;;;42.90;15.13;;;;;;;10.81;65.96;93116.25;5033141;28;20428;-67
2022/04/01 01:07:30;;;;;;;31.65;15.55;;;;;;;10.38;65.20;93095.00;5033114;28;20029;-67
2022/04/01 01:09:57;;;;;;;29.80;14.38;;;;;;;10.85;66.32;93107.22;5032963;28;20410;-66
2022/04/01 01:12:23;;;;;;;39.97;16.13;;;;;;;10.93;66.67;93095.56;5014755;28;20074;-67
2022/04/01 01:14:49;;;;;;;41.95;17.02;;;;;;;11.10;66.07;93098.88;5033074;28;20022;-67
2022/04/01 01:17:14;;;;;;;31.38;15.23;;;;;;;10.94;66.64;93097.09;5032850;28;20033;-67
2022/04/01 01:19:41;;;;;;;37.70;16.70;;;;;;;10.82;63.70;93104.50;5014909;28;20057;-67
2022/04/01 01:22:08;;;;;;;29.17;14.70;;;;;;;10.80;64.53;93106.72;5032633;28;20038;-66
2022/04/01 01:24:41;;;;;;;29.70;14.98;;;;;;;10.48;65.17;93079.59;5032857;28;20025;-67
2022/04/01 01:27:07;;;;;;;36.50;15.23;;;;;;;10.53;65.34;93097.91;5015317;28;20243;-67
2022/04/01 01:29:35;;;;;;;37.85;15.75;;;;;;;10.97;66.26;93081.56;5032852;28;20072;-67
2022/04/01 01:32:04;;;;;;;35.20;14.70;;;;;;;11.20;66.45;93106.25;5031987;28;20422;-67
2022/04/01 01:34:33;;;;;;;28.55;15.10;;;;;;;10.81;64.65;93095.75;5032595;28;20081;-67
2022/04/01 01:37:00;;;;;;;33.03;15.23;;;;;;;10.63;62.96;93106.06;5032123;28;20029;-68
2022/04/01 01:39:26;;;;;;;30.42;14.98;;;;;;;10.42;65.33;93087.09;5032613;28;20092;-68
2022/04/01 01:41:53;;;;;;;36.17;15.70;;;;;;;10.16;64.66;93101.78;5032104;28;20733;-68
2022/04/01 01:44:19;;;;;;;37.25;16.00;;;;;;;10.52;65.74;93088.41;5032730;28;20540;-67
2022/04/01 01:46:45;;;;;;;45.17;17.45;;;;;;;10.82;66.07;93091.19;5032190;28;20498;-67
2022/04/01 01:49:11;;;;;;;41.40;17.42;;;;;;;11.02;66.11;93087.34;5032405;28;20056;-67
2022/04/01 01:57:05;;;;;;;32.30;15.35;;;;;;;10.24;63.44;93084.13;5032068;28;20083;-67
2022/04/01 01:59:32;;;;;;;35.75;15.98;;;;;;;10.14;65.13;93079.34;5032117;28;20029;-66
2022/04/01 02:01:58;;;;;;;31.83;16.75;;;;;;;10.10;65.11;93073.19;5031712;28;20037;-67
2022/04/01 02:04:24;;;;;;;42.17;17.08;;;;;;;10.39;66.49;93071.88;5032158;28;20100;-67
2022/04/01 02:06:50;;;;;;;44.45;17.42;;;;;;;10.62;65.52;93082.50;5014300;28;20018;-67
2022/04/01 02:09:16;;;;;;;36.20;17.02;;;;;;;10.74;65.15;93100.16;5031870;28;20517;-67
2022/04/01 02:11:43;;;;;;;31.83;16.63;;;;;;;10.65;65.23;93097.75;5013734;28;20036;-67
2022/04/01 02:14:09;;;;;;;34.72;16.63;;;;;;;9.84;63.99;93087.88;5031831;28;20072;-67
2022/04/01 02:16:34;;;;;;;23.42;14.18;;;;;;;8.69;67.13;93086.41;5031947;28;20025;-68
2022/04/01 02:18:59;;;;;;;20.40;13.18;;;;;;;8.75;67.85;93085.06;5031675;28;20021;-66
2022/04/01 02:21:25;;;;;;;24.83;13.98;;;;;;;8.02;68.95;93098.66;5031288;28;20071;-67
2022/04/01 02:23:51;;;;;;;25.35;13.43;;;;;;;8.10;70.56;93105.69;5014163;28;20036;-67
2022/04/01 02:26:17;;;;;;;23.60;13.85;;;;;;;8.13;69.08;93088.34;5031655;28;20033;-67
2022/04/01 02:28:43;;;;;;;28.40;14.77;;;;;;;8.54;67.74;93085.28;5013894;28;20112;-67
2022/04/01 02:31:11;;;;;;;20.58;12.02;;;;;;;8.20;67.45;93089.31;5031009;28;20525;-67
2022/04/01 02:33:37;;;;;;;24.17;13.65;;;;;;;8.14;67.15;93056.25;5031558;28;20033;-66
2022/04/01 02:36:09;;;;;;;14.98;11.05;;;;;;;7.65;69.77;93104.06;5013488;28;20017;-67
2022/04/01 02:38:34;;;;;;;12.43;9.68;;;;;;;7.31;70.64;93100.03;5031605;28;20030;-66
2022/04/01 02:40:59;;;;;;;16.02;10.77;;;;;;;7.73;68.89;93086.53;5031057;28;20041;-67
2022/04/01 02:43:25;;;;;;;13.55;9.38;;;;;;;7.10;71.83;93115.28;5031086;28;20022;-67
2022/04/01 02:45:51;;;;;;;14.90;10.40;;;;;;;7.07;71.04;93108.78;5031446;28;20029;-67
2022/04/01 02:48:18;;;;;;;16.02;10.05;;;;;;;6.93;71.32;93108.34;5012279;28;20525;-67
2022/04/01 02:50:45;;;;;;;11.23;8.02;;;;;;;6.79;70.38;93095.44;5029791;28;20049;-66
2022/04/01 02:53:11;;;;;;;12.75;9.93;;;;;;;7.13;70.52;93109.34;5031418;28;20025;-67
2022/04/01 02:55:37;;;;;;;15.15;10.05;;;;;;;7.35;69.64;93116.78;5013124;28;20021;-67
2022/04/01 02:58:06;;;;;;;13.65;8.93;;;;;;;7.39;69.78;93119.56;5013421;28;20397;-66
2022/04/01 03:00:32;;;;;;;11.90;8.40;;;;;;;6.23;71.76;93080.03;5030821;28;20129;-68
2022/04/01 03:02:58;;;;;;;16.55;10.10;;;;;;;7.18;68.73;93096.66;5031121;28;20033;-66
2022/04/01 03:05:23;;;;;;;19.52;11.90;;;;;;;7.30;69.39;93072.84;5030900;28;20025;-67
2022/04/01 03:07:48;;;;;;;13.27;9.48;;;;;;;6.90;69.40;93070.09;5031307;28;20022;-68
2022/04/01 03:10:14;;;;;;;16.25;9.55;;;;;;;7.08;69.50;93126.19;5030589;28;20060;-68
2022/04/01 03:12:39;;;;;;;12.82;9.98;;;;;;;7.36;68.67;93122.84;5030996;28;20489;-67
2022/04/01 03:15:06;;;;;;;8.35;6.75;;;;;;;6.01;71.79;93096.28;5013434;28;20026;-67
2022/04/01 03:17:32;;;;;;;11.02;8.60;;;;;;;6.76;72.00;93120.66;5013388;28;20026;-67
2022/04/01 03:19:59;;;;;;;18.77;10.02;;;;;;;6.87;70.00;93099.84;5031110;28;20560;-68
2022/04/01 03:22:25;;;;;;;15.57;9.52;;;;;;;7.37;69.04;93113.81;5030715;28;20109;-68
2022/04/01 03:24:51;;;;;;;11.82;8.90;;;;;;;7.79;67.38;93106.38;5030893;28;20465;-67
2022/04/01 03:27:17;;;;;;;15.52;10.73;;;;;;;8.11;68.02;93107.25;5031058;28;20083;-67
2022/04/01 03:29:42;;;;;;;14.05;10.00;;;;;;;8.01;66.16;93120.94;5013168;28;20478;-67
2022/04/01 03:32:10;;;;;;;9.65;7.97;;;;;;;7.30;66.15;93098.50;5030565;28;20029;-67
2022/04/01 03:34:36;;;;;;;11.95;8.75;;;;;;;7.01;66.90;93107.44;5013133;28;20489;-68
2022/04/01 03:37:02;;;;;;;10.02;8.13;;;;;;;6.72;69.90;93132.97;5013430;28;20054;-68
2022/04/01 03:39:28;;;;;;;12.18;8.38;;;;;;;6.57;69.35;93128.31;5013055;28;20036;-67
2022/04/01 03:41:54;;;;;;;12.20;8.57;;;;;;;6.41;69.69;93109.69;5030701;28;20097;-67
2022/04/01 03:44:21;;;;;;;8.77;6.80;;;;;;;5.75;71.56;93114.94;5031264;28;20112;-66
2022/04/01 03:46:56;;;;;;;12.70;9.30;;;;;;;6.38;70.51;93128.06;5013336;28;20026;-67
2022/04/01 03:49:23;;;;;;;15.23;9.52;;;;;;;6.97;68.47;93099.41;5013021;28;20470;-67
2022/04/01 03:51:50;;;;;;;13.07;9.75;;;;;;;6.96;69.04;93102.38;5030186;28;20390;-67
2022/04/01 03:54:17;;;;;;;12.45;9.60;;;;;;;6.84;68.57;93115.59;5012977;28;20040;-67
2022/04/01 03:56:48;;;;;;;11.07;9.15;;;;;;;6.60;68.86;93103.88;5030759;28;20025;-67
2022/04/01 03:59:17;;;;;;;11.02;8.18;;;;;;;6.62;69.01;93100.94;5030827;28;20029;-67
2022/04/01 04:01:42;;;;;;;8.25;7.38;;;;;;;5.74;70.74;93111.53;5033175;28;20037;-66
2022/04/01 04:04:09;;;;;;;10.55;8.10;;;;;;;6.08;69.20;93106.28;5034143;28;20371;-66
2022/04/01 04:06:37;;;;;;;9.77;8.18;;;;;;;6.31;70.47;93133.09;5016561;28;20124;-67
2022/04/01 04:09:03;;;;;;;9.65;7.78;;;;;;;5.30;71.00;93028.56;5034520;28;20018;-67
2022/04/01 04:11:31;;;;;;;9.68;7.20;;;;;;;5.74;71.25;93148.44;5033801;28;20064;-67
2022/04/01 04:13:58;;;;;;;7.97;6.05;;;;;;;5.52;72.15;93135.56;5016203;28;20034;-67
2022/04/01 04:16:31;;;;;;;9.70;7.70;;;;;;;6.05;70.17;93131.47;5034005;28;20021;-67
2022/04/01 04:19:09;;;;;;;8.82;7.38;;;;;;;5.44;71.57;93065.97;5034195;28;20104;-66
2022/04/01 04:21:47;;;;;;;8.73;6.28;;;;;;;5.62;71.53;93139.69;5033776;28;20379;-67
2022/04/01 04:24:42;;;;;;;9.70;6.85;;;;;;;5.11;70.89;93084.34;5016216;28;20076;-66
2022/04/01 04:27:13;;;;;;;10.18;6.90;;;;;;;5.26;72.20;93119.13;4982134;28;20038;-66
2022/04/01 04:30:08;;;;;;;8.27;6.18;;;;;;;5.04;73.42;93152.59;5034030;28;20025;-66
2022/04/01 04:32:49;;;;;;;11.82;6.07;;;;;;;5.14;72.92;93139.06;5033820;28;20025;-67
2022/04/01 04:35:16;;;;;;;7.85;5.45;;;;;;;4.60;72.76;93088.78;5033907;28;20540;-67
2022/04/01 04:37:46;;;;;;;7.45;5.30;;;;;;;4.83;73.94;93163.06;5016309;28;20025;-67
2022/04/01 04:40:17;;;;;;;8.05;5.20;;;;;;;4.98;72.89;93147.81;5033252;28;20036;-66
2022/04/01 04:42:50;;;;;;;8.97;6.43;;;;;;;5.36;72.18;93145.13;5033678;28;20029;-67
2022/04/01 04:45:20;;;;;;;8.10;5.75;;;;;;;4.64;72.44;93113.38;5033508;28;20318;-67
2022/04/01 04:47:47;;;;;;;8.23;5.50;;;;;;;5.17;71.86;93164.78;5015954;28;20717;-67
2022/04/01 04:50:16;;;;;;;7.60;4.60;;;;;;;4.78;73.36;93170.34;5032998;28;20053;-67
2022/04/01 04:52:47;;;;;;;9.00;5.90;;;;;;;5.10;71.44;93168.97;5033606;28;20029;-67
2022/04/01 04:55:14;;;;;;;10.43;6.00;;;;;;;4.64;71.91;93154.75;5015882;28;20022;-67
2022/04/01 04:57:42;;;;;;;9.15;5.30;;;;;;;5.15;71.14;93174.84;5033189;28;20021;-67
2022/04/01 05:00:08;;;;;;;9.25;5.75;;;;;;;4.69;71.24;93149.31;5015279;28;20120;-66
2022/04/01 05:02:58;;;;;;;8.90;4.93;;;;;;;4.75;71.99;93174.38;5033067;28;20045;-67
2022/04/01 05:05:44;;;;;;;10.70;6.03;;;;;;;4.76;72.35;93173.31;5033202;28;20025;-65
2022/04/01 05:08:34;;;;;;;11.95;5.75;;;;;;;5.04;71.37;93183.44;5015519;28;20025;-67
2022/04/01 05:11:43;;;;;;;7.82;3.88;;;;;;;4.14;74.17;93187.66;5015002;28;20033;-67
2022/04/01 05:14:11;;;;;;;12.93;6.80;;;;;;;4.54;72.77;93190.09;5015560;28;20558;-66
2022/04/01 05:17:01;;;;;;;12.90;5.95;;;;;;;4.21;72.96;93160.91;5015204;28;20029;-66
2022/04/01 05:19:36;;;;;;;17.33;8.05;;;;;;;4.49;72.01;93145.50;5033023;28;20022;-68
2022/04/01 05:22:10;;;;;;;14.02;7.60;;;;;;;4.89;72.11;93197.91;5032577;28;20529;-68
2022/04/01 05:24:50;;;;;;;13.27;6.55;;;;;;;4.51;72.13;93206.53;5015136;28;20029;-68
2022/04/01 05:27:28;;;;;;;15.55;8.05;;;;;;;4.95;70.77;93172.91;5031849;28;20025;-67
2022/04/01 05:30:13;;;;;;;18.00;8.15;;;;;;;4.52;71.69;93209.94;5014767;28;20057;-67
2022/04/01 05:32:40;;;;;;;15.77;7.05;;;;;;;4.42;72.10;93197.84;5032729;28;20490;-68
2022/04/01 05:35:06;;;;;;;15.32;8.15;;;;;;;5.20;70.76;93208.16;5032418;28;20075;-67
2022/04/01 05:37:33;;;;;;;13.93;7.40;;;;;;;4.98;71.17;93214.47;5032532;28;20022;-69
2022/04/01 05:40:05;;;;;;;13.57;7.47;;;;;;;4.43;71.07;93171.22;5032726;28;20092;-68
2022/04/01 05:42:32;;;;;;;13.90;7.60;;;;;;;4.60;72.57;93206.50;5031685;28;20033;-67
2022/04/01 05:44:59;;;;;;;15.07;6.40;;;;;;;4.42;72.27;93216.28;5032251;28;20029;-64
2022/04/01 05:47:30;;;;;;;12.30;6.95;;;;;;;3.86;72.49;93152.25;5032472;28;20017;-64
2022/04/01 05:49:57;;;;;;;12.15;6.68;;;;;;;3.39;73.11;93065.34;5014759;28;20433;-65
2022/04/01 05:52:23;;;;;;;10.40;6.68;;;;;;;3.73;71.73;93064.53;5032085;28;20021;-65
2022/04/01 05:54:48;;;;;;;10.65;6.22;;;;;;;4.43;71.75;93189.66;5032161;28;20072;-65
2022/04/01 05:57:18;;;;;;;10.95;6.22;;;;;;;4.29;72.17;93201.44;5031536;28;20071;-65
2022/04/01 05:59:43;;;;;;;12.45;6.15;;;;;;;3.97;72.32;93152.72;5032341;28;20071;-64
2022/04/01 06:02:27;;;;;;;14.52;6.68;;;;;;;4.73;72.14;93236.38;5031776;28;20056;-64
2022/04/01 06:05:18;;;;;;;11.48;6.30;;;;;;;4.01;71.87;93140.47;5031958;28;20385;-64
2022/04/01 06:07:59;;;;;;;18.48;6.00;;;;;;;4.02;71.08;93116.50;5032099;28;20032;-64
2022/04/01 06:10:36;;;;;;;11.35;6.63;;;;;;;3.31;71.45;93026.69;5031651;28;20100;-65
2022/04/01 06:13:29;;;;;;;13.02;6.28;;;;;;;4.68;71.90;93238.06;5013145;28;20088;-65
2022/04/01 06:16:11;;;;;;;9.32;5.00;;;;;;;3.20;72.37;93089.28;5031893;28;20071;-65
2022/04/01 06:19:04;;;;;;;12.23;5.55;;;;;;;3.53;73.25;93113.28;5031998;28;20370;-63
2022/04/01 06:21:36;;;;;;;13.73;6.93;;;;;;;4.61;71.03;93239.66;5031258;28;20474;-65
2022/04/01 06:24:10;;;;;;;13.30;6.65;;;;;;;4.11;70.72;93125.16;5031665;28;20068;-65
2022/04/01 06:26:56;;;;;;;12.38;7.20;;;;;;;4.71;70.88;93168.22;5031283;28;20029;-65
2022/04/01 06:29:41;;;;;;;11.50;6.15;;;;;;;4.84;72.22;93253.38;5013816;28;20021;-65
2022/04/01 06:32:54;;;;;;;10.80;5.60;;;;;;;3.70;73.37;93123.03;5031116;28;20026;-65
2022/04/01 06:35:26;;;;;;;12.30;5.88;;;;;;;4.36;73.07;93255.16;5022774;28;20509;-65
2022/04/01 06:38:01;;;;;;;9.77;6.10;;;;;;;4.34;72.37;93198.63;5031567;28;20021;-66
2022/04/01 06:40:41;;;;;;;11.75;6.18;;;;;;;4.08;73.24;93217.84;5031334;28;20386;-66
2022/04/01 06:43:06;;;;;;;10.95;6.10;;;;;;;3.19;73.37;93092.22;5030646;28;20034;-67
2022/04/01 06:45:32;;;;;;;9.20;6.03;;;;;;;3.41;73.32;93094.72;5031347;28;20478;-66
2022/04/01 06:47:57;;;;;;;11.85;6.63;;;;;;;4.75;72.31;93226.28;5031480;28;20104;-66
2022/04/01 06:50:23;;;;;;;9.57;5.93;;;;;;;4.38;71.26;93191.66;5031044;28;20057;-66
2022/04/01 06:52:48;;;;;;;12.82;7.30;;;;;;;5.34;70.24;93253.53;5031303;28;20018;-65
2022/04/01 06:55:15;;;;;;;9.70;7.15;;;;;;;4.80;70.97;93181.34;5031429;28;20610;-66
2022/04/01 06:57:40;;;;;;;12.38;7.10;;;;;;;5.34;71.39;93245.63;5030481;28;20083;-68
2022/04/01 07:00:08;;;;;;;10.65;6.80;;;;;;;5.34;69.24;93258.03;5030817;28;20605;-67
2022/04/01 07:02:35;;;;;;;10.63;7.28;;;;;;;4.87;69.82;93211.41;5030907;28;20043;-70
2022/04/01 07:05:01;;;;;;;8.93;6.95;;;;;;;5.63;69.24;93236.16;5031128;28;20026;-70
2022/04/01 07:07:26;;;;;;;9.30;6.95;;;;;;;5.06;68.59;93215.50;5031314;28;20075;-69
2022/04/01 07:09:52;;;;;;;8.95;6.65;;;;;;;5.03;69.43;93234.59;5031226;28;20033;-66
2022/04/01 07:12:17;;;;;;;10.18;7.55;;;;;;;5.53;69.44;93231.25;5030104;28;20034;-66
2022/04/01 07:14:42;;;;;;;8.90;7.18;;;;;;;5.56;69.32;93254.38;5012766;28;20035;-65
2022/04/01 07:17:08;;;;;;;17.45;8.93;;;;;;;5.94;67.99;93233.25;5031226;28;20471;-67
2022/04/01 07:19:34;;;;;;;11.85;7.43;;;;;;;5.77;66.98;93272.88;5031176;28;20026;-66
2022/04/01 07:21:59;;;;;;;12.23;7.55;;;;;;;5.94;68.13;93251.72;5030609;28;20056;-68
2022/04/01 07:24:26;;;;;;;9.48;6.82;;;;;;;5.82;67.54;93256.88;5031019;28;20029;-68
2022/04/01 07:26:54;;;;;;;8.85;6.32;;;;;;;5.65;67.41;93258.50;5031145;28;20486;-66
2022/04/01 07:29:20;;;;;;;8.70;6.47;;;;;;;5.13;69.20;93250.06;5011939;28;20462;-66
2022/04/01 07:34:35;;;;;;;6.95;5.25;;;;;;;5.20;68.38;93266.91;5031255;28;20040;-68
2022/04/01 07:37:00;;;;;;;7.70;5.10;;;;;;;5.46;67.96;93255.50;5034946;28;20072;-62
2022/04/01 07:39:27;;;;;;;8.57;5.10;;;;;;;4.78;68.95;93202.72;5034938;28;20021;-62
2022/04/01 07:41:52;;;;;;;8.30;5.07;;;;;;;5.29;67.71;93216.03;5034458;28;20116;-63
2022/04/01 07:44:18;;;;;;;7.85;5.20;;;;;;;3.98;69.50;93091.13;5033920;28;20056;-63
2022/04/01 07:46:43;;;;;;;9.00;5.05;;;;;;;5.91;68.60;93268.94;5034616;28;20207;-65
2022/04/01 07:49:09;;;;;;;5.93;3.88;;;;;;;4.65;69.71;93222.88;5034486;28;20026;-64
2022/04/01 07:51:35;;;;;;;5.65;4.53;;;;;;;5.59;68.17;93209.69;5034250;28;20025;-65
2022/04/01 07:54:00;;;;;;;4.25;3.67;;;;;;;5.72;66.97;93140.06;5034302;28;20026;-64
2022/04/01 07:56:30;;;;;;;4.60;3.92;;;;;;;4.64;68.72;93128.41;5034162;28;20022;-64
2022/04/01 07:58:57;;;;;;;5.53;3.17;;;;;;;4.43;67.44;93109.91;5033846;28;20034;-65
2022/04/01 08:01:23;;;;;;;3.45;3.05;;;;;;;5.63;68.29;93307.38;5033906;28;20036;-64
2022/04/01 08:03:48;;;;;;;3.80;2.67;;;;;;;4.20;69.00;93134.88;5034422;28;20029;-64
2022/04/01 08:06:14;;;;;;;3.53;2.53;;;;;;;5.02;69.75;93262.03;5034329;28;20021;-63
2022/04/01 08:08:40;;;;;;;3.30;3.00;;;;;;;4.48;68.10;93098.44;5034100;28;20044;-64
2022/04/01 08:11:06;;;;;;;4.72;3.00;;;;;;;5.52;67.90;93232.34;5016257;28;20474;-64
2022/04/01 08:13:33;;;;;;;4.13;2.92;;;;;;;5.33;67.96;93240.69;5033685;28;20038;-64
2022/04/01 08:15:59;;;;;;;5.20;2.20;;;;;;;4.48;69.47;93172.91;5034149;28;20056;-63
2022/04/01 08:18:25;;;;;;;2.80;2.55;;;;;;;4.05;71.51;93178.25;5016469;28;20079;-63
2022/04/01 08:20:51;;;;;;;3.70;3.38;;;;;;;5.43;68.51;93235.81;5033559;28;20104;-64
2022/04/01 08:23:18;;;;;;;2.72;2.47;;;;;;;5.56;68.29;93234.03;5016164;28;20029;-63
2022/04/01 08:25:43;;;;;;;2.85;2.60;;;;;;;4.72;68.36;93229.56;5034117;28;20021;-64
2022/04/01 08:28:08;;;;;;;2.30;2.10;;;;;;;4.40;68.52;93158.69;5033252;28;20039;-64
2022/04/01 08:30:34;;;;;;;3.35;2.78;;;;;;;4.65;66.74;93124.69;5033448;28;20026;-64
2022/04/01 08:33:00;;;;;;;2.63;2.10;;;;;;;5.25;68.06;93252.78;5033839;28;20036;-64
2022/04/01 08:35:26;;;;;;;3.13;2.83;;;;;;;5.85;66.00;93124.31;5033976;28;20025;-63
2022/04/01 08:37:54;;;;;;;2.90;2.60;;;;;;;4.93;67.46;93190.91;5034040;28;20025;-64
2022/04/01 08:40:19;;;;;;;3.28;2.50;;;;;;;6.82;66.61;93305.44;5033395;28;20064;-63
2022/04/01 08:42:46;;;;;;;4.85;2.65;;;;;;;4.94;67.07;93174.00;5033624;28;20057;-64
2022/04/01 08:45:12;;;;;;;3.03;2.20;;;;;;;5.89;66.96;93328.41;5033592;28;20041;-64
2022/04/01 08:47:38;;;;;;;2.50;2.20;;;;;;;5.48;64.90;93188.19;5014649;28;20355;-64
2022/04/01 08:50:04;;;;;;;4.72;2.45;;;;;;;6.20;64.83;93180.25;5033424;28;20045;-63
2022/04/01 08:52:30;;;;;;;3.00;2.65;;;;;;;6.70;65.31;93346.53;5033402;28;20048;-65
2022/04/01 08:55:06;;;;;;;3.45;2.72;;;;;;;6.02;66.13;93216.56;5033598;28;20025;-65
2022/04/01 08:57:40;;;;;;;3.58;3.30;;;;;;;6.34;64.54;93214.28;5033359;28;20071;-64
2022/04/01 09:00:11;;;;;;;4.05;2.35;;;;;;;6.58;65.84;93327.97;5032496;28;20061;-64
2022/04/01 09:02:37;;;;;;;6.93;2.58;;;;;;;5.21;67.11;93210.47;5033162;28;20084;-65
2022/04/01 09:05:07;;;;;;;2.95;2.75;;;;;;;5.59;66.50;93127.94;5015572;28;20053;-64
2022/04/01 09:07:33;;;;;;;2.05;1.95;;;;;;;6.20;64.30;93227.78;5033336;28;20364;-65
2022/04/01 09:10:08;;;;;;;1.80;1.70;;;;;;;5.28;67.43;93210.00;5033071;28;20032;-65
2022/04/01 09:12:34;;;;;;;2.28;1.75;;;;;;;4.99;65.62;93158.03;5033281;28;20386;-64
2022/04/01 09:15:01;;;;;;;1.70;1.60;;;;;;;5.11;68.04;93221.38;5032374;28;20072;-64
2022/04/01 09:17:44;;;;;;;2.72;1.50;;;;;;;6.16;66.85;93335.09;5033048;28;20031;-65
2022/04/01 09:20:10;;;;;;;1.30;1.20;;;;;;;6.51;65.25;93317.94;5014839;28;20033;-65
2022/04/01 09:22:38;;;;;;;1.35;1.25;;;;;;;5.86;68.40;93344.84;5032752;28;20029;-65
2022/04/01 09:25:08;;;;;;;1.52;1.42;;;;;;;6.43;67.04;93341.75;5033020;28;20080;-64
2022/04/01 09:27:49;;;;;;;1.55;1.45;;;;;;;6.52;66.43;93308.16;5032890;28;20022;-64
2022/04/01 09:30:20;;;;;;;1.80;1.70;;;;;;;7.61;64.63;93277.81;5031245;28;20121;-64
2022/04/01 09:32:48;;;;;;;1.45;1.33;;;;;;;5.64;68.76;93354.56;5033347;28;20025;-63
2022/04/01 09:35:15;;;;;;;1.55;1.45;;;;;;;6.11;68.85;93351.91;5032989;28;20018;-65
2022/04/01 09:37:47;;;;;;;0.93;0.93;;;;;;;5.78;69.06;93361.47;5032795;28;20104;-65
2022/04/01 09:40:17;;;;;;;4.93;1.33;;;;;;;4.64;69.33;93208.19;5032120;28;20382;-65
2022/04/01 09:42:50;;;;;;;1.10;0.98;;;;;;;4.85;68.98;93204.88;5032248;28;20044;-65
2022/04/01 09:45:24;;;;;;;1.60;1.50;;;;;;;4.86;68.47;93236.19;5031774;28;20108;-64
2022/04/01 09:48:02;;;;;;;2.25;0.88;;;;;;;4.02;71.06;93226.97;5032742;28;20029;-64
2022/04/01 09:50:33;;;;;;;1.77;1.67;;;;;;;4.66;71.19;93219.19;5031922;28;20100;-63
2022/04/01 09:53:19;;;;;;;1.52;1.10;;;;;;;5.06;71.20;93279.50;5032284;28;20044;-63
2022/04/01 09:55:50;;;;;;;0.50;0.50;;;;;;;4.06;72.34;93233.19;5014601;28;20672;-63
2022/04/01 09:58:16;;;;;;;1.00;0.88;;;;;;;4.03;71.51;93272.47;5032123;28;20098;-62
2022/04/01 10:00:42;;;;;;;2.05;1.83;;;;;;;6.00;70.38;93332.25;5030952;28;20466;-64
2022/04/01 10:03:10;;;;;;;1.77;1.67;;;;;;;4.87;68.72;93200.84;5032162;28;20116;-61
2022/04/01 10:05:37;;;;;;;1.80;1.70;;;;;;;6.62;67.43;93355.31;5032302;28;20079;-62
2022/04/01 10:08:05;;;;;;;1.75;1.00;;;;;;;3.97;69.84;93184.28;5014433;28;20112;-64
2022/04/01 10:10:31;;;;;;;1.48;0.90;;;;;;;5.64;71.26;93390.72;5031275;28;20094;-62
2022/04/01 10:13:01;;;;;;;1.08;0.60;;;;;;;4.86;71.93;93369.75;5031926;28;20116;-63
2022/04/01 10:15:32;;;;;;;0.68;0.50;;;;;;;3.77;72.13;93262.69;5031444;28;20033;-63
2022/04/01 10:18:01;;;;;;;0.75;0.75;;;;;;;5.66;70.20;93364.78;5031954;28;20029;-62
2022/04/01 10:20:31;;;;;;;1.02;0.73;;;;;;;4.59;71.01;93239.19;5031386;28;20462;-63
2022/04/01 10:22:57;;;;;;;1.42;0.70;;;;;;;5.14;70.62;93336.72;5031606;28;20083;-63
2022/04/01 10:25:51;;;;;;;1.00;0.80;;;;;;;5.68;68.97;93379.22;5031701;28;20033;-62
2022/04/01 10:28:19;;;;;;;0.30;0.30;;;;;;;4.40;68.17;93297.41;5010205;28;20390;-61
2022/04/01 10:30:58;;;;;;;1.02;0.60;;;;;;;4.63;69.39;93219.81;5030457;28;20120;-62
2022/04/01 10:33:35;;;;;;;1.10;0.80;;;;;;;4.77;69.81;93250.47;5031665;28;20028;-62
2022/04/01 10:36:28;;;;;;;1.92;1.05;;;;;;;6.22;69.35;93416.44;5031328;28;20021;-62
2022/04/01 10:39:06;;;;;;;0.80;0.80;;;;;;;5.82;68.54;93386.16;5031318;28;20474;-62
2022/04/01 10:41:32;;;;;;;0.93;0.85;;;;;;;6.14;69.01;93390.88;5030901;28;20033;-62
2022/04/01 10:44:00;;;;;;;1.13;0.65;;;;;;;5.65;67.84;93387.75;5031231;28;20026;-60
2022/04/01 10:46:27;;;;;;;0.50;0.50;;;;;;;4.40;69.04;93260.56;5031033;28;20655;-61
2022/04/01 10:52:23;;;;;;;0.55;0.50;;;;;;;4.64;67.92;93245.06;5031271;28;20040;-61
2022/04/01 10:55:07;;;;;;;2.00;0.90;;;;;;;6.29;67.29;93339.34;5020279;28;20037;-63
2022/04/01 10:57:46;;;;;;;0.60;0.60;;;;;;;5.14;68.16;93373.59;5031328;28;20103;-63
2022/04/01 11:00:15;;;;;;;0.57;0.55;;;;;;;4.46;70.02;93380.44;5030300;28;20528;-61
2022/04/01 11:03:04;;;;;;;0.35;0.35;;;;;;;4.79;69.42;93353.66;5030613;28;20025;-60
2022/04/01 11:05:32;;;;;;;0.57;0.57;;;;;;;4.29;68.46;93268.00;5028960;28;20026;-60
2022/04/01 11:08:16;;;;;;;0.40;0.40;;;;;;;4.95;69.66;93402.91;5030943;28;20025;-61
2022/04/01 11:11:05;;;;;;;0.47;0.47;;;;;;;4.03;70.54;93299.56;5030081;28;20112;-60
2022/04/01 11:13:31;;;;;;;0.60;0.60;;;;;;;4.03;69.34;93283.00;5030875;28;20786;-61
2022/04/01 11:16:16;;;;;;;0.88;0.60;;;;;;;4.63;69.04;93316.47;5030386;28;20030;-60
2022/04/01 11:19:14;;;;;;;0.57;0.57;;;;;;;5.37;69.92;93397.91;5031332;28;20021;-61
2022/04/01 11:21:41;;;;;;;0.65;0.60;;;;;;;4.91;66.71;93227.31;5030601;28;20055;-60
2022/04/01 11:24:36;;;;;;;2.25;0.60;;;;;;;5.74;66.33;93395.66;5031232;28;20378;-60
2022/04/01 11:27:23;;;;;;;1.17;0.82;;;;;;;6.69;65.35;93413.69;5031076;28;20029;-61
2022/04/01 11:30:21;;;;;;;0.73;0.73;;;;;;;5.28;67.08;93293.59;5030215;28;20041;-61
2022/04/01 11:32:53;;;;;;;0.70;0.60;;;;;;;5.86;67.98;93408.19;5012635;28;20045;-61
2022/04/01 11:35:21;;;;;;;0.80;0.80;;;;;;;5.99;66.58;93240.97;5030873;28;20029;-62
2022/04/01 11:37:47;;;;;;;1.40;0.80;;;;;;;6.44;66.45;93412.75;5030832;28;20022;-61
2022/04/01 11:40:16;;;;;;;0.90;0.90;;;;;;;6.22;65.31;93283.66;5030402;28;20026;-61
2022/04/01 11:42:58;;;;;;;1.05;0.90;;;;;;;7.23;64.19;93397.13;5013004;28;20025;-61
2022/04/01 11:45:26;;;;;;;0.85;0.85;;;;;;;6.53;61.95;93150.44;5029945;28;20690;-61
2022/04/01 11:47:52;;;;;;;0.80;0.80;;;;;;;6.54;63.75;93331.59;5030817;28;20475;-61
2022/04/01 11:50:20;;;;;;;0.98;0.90;;;;;;;6.23;66.69;93351.97;5030231;28;20037;-60
2022/04/01 11:52:52;;;;;;;1.17;1.17;;;;;;;5.86;65.46;93247.22;5030512;28;20079;-62
2022/04/01 11:55:22;;;;;;;1.00;1.00;;;;;;;5.87;67.51;93407.09;5030702;28;20029;-65
2022/04/01 11:57:49;;;;;;;0.75;0.75;;;;;;;5.28;68.65;93406.94;5030653;28;20148;-61
2022/04/01 12:00:18;;;;;;;1.73;1.63;;;;;;;5.63;67.99;93392.59;5029551;28;20500;-61